createdAt,value
2017-07-03T00:03:58.515Z,1010.43
2017-07-03T00:06:22.436Z,1010.47
2017-07-03T00:08:46.334Z,1010.47
2017-07-03T00:11:10.218Z,1010.48
2017-07-03T00:13:34.086Z,1010.47
2017-07-03T00:15:57.975Z,1010.49
2017-07-03T00:18:21.870Z,1010.51
2017-07-03T00:20:45.692Z,1010.5
2017-07-03T00:23:09.567Z,1010.53
2017-07-03T00:25:33.531Z,1010.57
2017-07-03T00:27:57.287Z,1010.55
2017-07-03T00:30:21.239Z,1010.54
2017-07-03T00:32:44.987Z,1010.51
2017-07-03T00:35:25.487Z,1010.53
2017-07-03T00:37:49.298Z,1010.49
2017-07-03T00:40:13.087Z,1010.47
2017-07-03T00:42:36.894Z,1010.45
2017-07-03T00:45:00.832Z,1010.48
2017-07-03T00:47:24.603Z,1010.48
2017-07-03T00:49:48.474Z,1010.5
2017-07-03T00:52:12.319Z,1010.51
2017-07-03T00:54:36.193Z,1010.51
2017-07-03T00:57:00.019Z,1010.5
2017-07-03T00:59:23.845Z,1010.48
2017-07-03T01:01:47.716Z,1010.46
2017-07-03T01:04:11.561Z,1010.43
2017-07-03T01:06:35.397Z,1010.48
2017-07-03T01:08:59.197Z,1010.5
2017-07-03T01:11:14.585Z,1010.45
2017-07-03T01:13:38.447Z,1010.44
2017-07-03T01:16:02.287Z,1010.45
2017-07-03T01:18:26.105Z,1010.43
2017-07-03T01:20:41.495Z,1010.41
2017-07-03T01:23:05.329Z,1010.42
2017-07-03T01:25:29.130Z,1010.43
2017-07-03T01:27:52.955Z,1010.42
2017-07-03T01:30:16.838Z,1010.42
2017-07-03T01:32:40.639Z,1010.43
2017-07-03T01:35:04.469Z,1010.45
2017-07-03T01:37:28.260Z,1010.42
2017-07-03T01:39:52.078Z,1010.44
2017-07-03T01:42:15.939Z,1010.46
2017-07-03T01:44:39.750Z,1010.45
2017-07-03T01:47:03.595Z,1010.46
2017-07-03T01:51:03.534Z,1010.43
2017-07-03T01:53:27.375Z,1010.48
2017-07-03T01:55:51.215Z,1010.45
2017-07-03T02:00:38.047Z,1010.51
2017-07-03T02:03:01.861Z,1010.56
2017-07-03T02:05:25.785Z,1010.55
2017-07-03T02:07:49.617Z,1010.55
2017-07-03T02:10:13.531Z,1010.58
2017-07-03T02:12:37.408Z,1010.56
2017-07-03T02:15:01.248Z,1010.59
2017-07-03T02:17:11.543Z,1010.58
2017-07-03T02:19:35.453Z,1010.53
2017-07-03T02:21:59.321Z,1010.53
2017-07-03T02:24:23.111Z,1010.43
2017-07-03T02:26:46.964Z,1010.5
2017-07-03T02:29:10.753Z,1010.47
2017-07-03T02:31:34.613Z,1010.44
2017-07-03T02:33:58.487Z,1010.45
2017-07-03T02:36:22.230Z,1010.45
2017-07-03T02:38:46.157Z,1010.45
2017-07-03T02:41:09.946Z,1010.42
2017-07-03T02:43:33.873Z,1010.4
2017-07-03T02:45:57.622Z,1010.43
2017-07-03T02:48:21.568Z,1010.38
2017-07-03T02:50:45.418Z,1010.35
2017-07-03T02:53:09.255Z,1010.38
2017-07-03T02:55:33.148Z,1010.42
2017-07-03T02:57:57.008Z,1010.42
2017-07-03T03:00:20.853Z,1010.46
2017-07-03T03:02:44.758Z,1010.42
2017-07-03T03:05:08.596Z,1010.43
2017-07-03T03:07:32.501Z,1010.43
2017-07-03T03:09:56.365Z,1010.44
2017-07-03T03:12:20.200Z,1010.41
2017-07-03T03:14:44.079Z,1010.39
2017-07-03T03:18:44.125Z,1010.43
2017-07-03T03:21:08.019Z,1010.41
2017-07-03T03:23:31.911Z,1010.42
2017-07-03T03:25:55.680Z,1010.42
2017-07-03T03:28:19.551Z,1010.44
2017-07-03T03:30:43.359Z,1010.48
2017-07-03T03:33:07.182Z,1010.54
2017-07-03T03:35:31.025Z,1010.49
2017-07-03T03:37:54.844Z,1010.53
2017-07-03T03:40:18.682Z,1010.53
2017-07-03T03:42:42.541Z,1010.57
2017-07-03T03:45:06.352Z,1010.57
2017-07-03T03:47:30.225Z,1010.58
2017-07-03T03:49:54.022Z,1010.54
2017-07-03T03:52:18.028Z,1010.57
2017-07-03T03:54:41.910Z,1010.54
2017-07-03T03:57:05.737Z,1010.54
2017-07-03T03:59:29.561Z,1010.57
2017-07-03T04:01:53.386Z,1010.6
2017-07-03T04:04:17.238Z,1010.58
2017-07-03T04:06:41.273Z,1010.63
2017-07-03T04:09:05.014Z,1010.58
2017-07-03T04:11:28.843Z,1010.59
2017-07-03T04:13:52.713Z,1010.56
2017-07-03T04:16:17.106Z,1010.57
2017-07-03T04:18:40.910Z,1010.54
2017-07-03T04:21:04.756Z,1010.54
2017-07-03T04:23:28.617Z,1010.55
2017-07-03T04:25:52.488Z,1010.59
2017-07-03T04:28:16.429Z,1010.65
2017-07-03T04:30:40.302Z,1010.65
2017-07-03T04:33:04.217Z,1010.67
2017-07-03T04:35:28.138Z,1010.71
2017-07-03T04:37:51.980Z,1010.72
2017-07-03T04:40:15.884Z,1010.68
2017-07-03T04:42:39.863Z,1010.7
2017-07-03T04:45:03.751Z,1010.7
2017-07-03T04:49:03.827Z,1010.7
2017-07-03T04:51:27.794Z,1010.69
2017-07-03T04:53:51.744Z,1010.72
2017-07-03T04:56:15.706Z,1010.71
2017-07-03T04:58:39.757Z,1010.72
2017-07-03T05:01:04.221Z,1010.72
2017-07-03T05:03:28.196Z,1010.72
2017-07-03T05:05:52.088Z,1010.76
2017-07-03T05:08:16.010Z,1010.77
2017-07-03T05:10:40.014Z,1010.83
2017-07-03T05:13:03.876Z,1010.77
2017-07-03T05:15:27.838Z,1010.85
2017-07-03T05:17:53.875Z,1010.87
2017-07-03T05:20:18.052Z,1010.8
2017-07-03T05:22:42.013Z,1010.89
2017-07-03T05:25:05.961Z,1010.87
2017-07-03T05:27:29.946Z,1011.02
2017-07-03T05:29:54.080Z,1011.1
2017-07-03T05:32:18.401Z,1011.13
2017-07-03T05:34:34.461Z,1011.22
2017-07-03T05:36:59.239Z,1011.24
2017-07-03T05:39:24.307Z,1011.33
2017-07-03T05:41:49.436Z,1011.31
2017-07-03T05:44:14.709Z,1011.16
2017-07-03T05:46:39.993Z,1011.13
2017-07-03T05:49:05.179Z,1011.15
2017-07-03T05:51:30.337Z,1011.09
2017-07-03T05:53:55.280Z,1011.11
2017-07-03T05:56:20.138Z,1011.17
2017-07-03T05:58:44.910Z,1011.1
2017-07-03T06:01:09.495Z,1011.14
2017-07-03T06:03:34.043Z,1011.11
2017-07-03T06:07:34.263Z,1011.15
2017-07-03T06:09:58.724Z,1011.11
2017-07-03T06:12:23.203Z,1011.09
2017-07-03T06:14:47.365Z,1011.12
2017-07-03T06:17:11.633Z,1011.1
2017-07-03T06:19:35.803Z,1011.06
2017-07-03T06:22:00.028Z,1011.07
2017-07-03T06:24:24.358Z,1011.1
2017-07-03T06:26:48.527Z,1011.12
2017-07-03T06:29:12.692Z,1011.14
2017-07-03T06:31:36.931Z,1011.16
2017-07-03T06:33:47.377Z,1011.21
2017-07-03T06:36:11.601Z,1011.21
2017-07-03T06:38:36.090Z,1011.18
2017-07-03T06:40:46.541Z,1011.18
2017-07-03T06:43:10.734Z,1011.2
2017-07-03T06:45:26.745Z,1011.18
2017-07-03T06:47:51.943Z,1011.23
2017-07-03T06:50:16.221Z,1011.17
2017-07-03T06:52:40.279Z,1011.12
2017-07-03T06:55:04.482Z,1011.19
2017-07-03T06:57:28.887Z,1011.17
2017-07-03T06:59:53.888Z,1011.17
2017-07-03T07:02:18.052Z,1011.18
2017-07-03T07:04:43.139Z,1011.16
2017-07-03T07:07:11.007Z,1011.2
2017-07-03T07:09:35.069Z,1011.21
2017-07-03T07:11:59.132Z,1011.22
2017-07-03T07:14:23.299Z,1011.22
2017-07-03T07:16:47.403Z,1011.19
2017-07-03T07:19:11.557Z,1011.15
2017-07-03T07:21:35.728Z,1011.24
2017-07-03T07:23:59.865Z,1011.23
2017-07-03T07:26:24.000Z,1011.23
2017-07-03T07:28:25.893Z,1011.22
2017-07-03T07:30:39.000Z,1011.2
2017-07-03T07:34:39.948Z,1011.19
2017-07-03T07:37:04.198Z,1011.2
2017-07-03T07:39:28.411Z,1011.19
2017-07-03T07:41:52.596Z,1011.21
2017-07-03T07:44:16.851Z,1011.12
2017-07-03T07:46:41.018Z,1011.14
2017-07-03T07:49:05.130Z,1011.11
2017-07-03T07:51:29.347Z,1011.14
2017-07-03T07:53:53.518Z,1011.14
2017-07-03T07:56:17.737Z,1011.16
2017-07-03T07:58:41.874Z,1011.15
2017-07-03T08:01:06.022Z,1011.16
2017-07-03T08:03:30.211Z,1011.14
2017-07-03T08:05:54.403Z,1011.12
2017-07-03T08:08:21.451Z,1011.15
2017-07-03T08:10:45.727Z,1011.19
2017-07-03T08:13:09.886Z,1011.18
2017-07-03T08:15:34.146Z,1011.2
2017-07-03T08:17:58.431Z,1011.19
2017-07-03T08:20:22.650Z,1011.28
2017-07-03T08:22:46.983Z,1011.27
2017-07-03T08:24:48.915Z,1011.29
2017-07-03T08:27:13.224Z,1011.27
2017-07-03T08:29:37.550Z,1011.24
2017-07-03T08:32:01.925Z,1011.3
2017-07-03T08:35:54.336Z,1011.28
2017-07-03T08:38:19.923Z,1011.29
2017-07-03T08:40:44.312Z,1011.26
2017-07-03T08:43:08.590Z,1011.24
2017-07-03T08:45:32.912Z,1011.22
2017-07-03T08:47:57.242Z,1011.2
2017-07-03T08:50:21.555Z,1011.18
2017-07-03T08:52:45.805Z,1011.15
2017-07-03T08:55:10.100Z,1011.14
2017-07-03T08:57:34.541Z,1011.17
2017-07-03T09:01:35.042Z,1011.16
2017-07-03T09:03:59.375Z,1011.2
2017-07-03T09:06:23.646Z,1011.27
2017-07-03T09:08:48.066Z,1011.26
2017-07-03T09:11:12.702Z,1011.13
2017-07-03T09:13:37.198Z,1011.09
2017-07-03T09:16:02.016Z,1011.09
2017-07-03T09:18:26.663Z,1011.03
2017-07-03T09:20:51.448Z,1011.12
2017-07-03T09:23:03.283Z,1011.13
2017-07-03T09:26:19.135Z,1011.11
2017-07-03T09:28:55.959Z,1011.08
2017-07-03T09:30:59.327Z,1011.12
2017-07-03T09:33:10.850Z,1011.1
2017-07-03T09:35:36.327Z,1011
2017-07-03T09:38:00.030Z,1010.71
2017-07-03T09:40:25.637Z,1010.86
2017-07-03T09:42:50.922Z,1011.08
2017-07-03T09:45:16.137Z,1011.01
2017-07-03T09:47:41.280Z,1010.96
2017-07-03T09:50:06.562Z,1010.98
2017-07-03T09:52:32.996Z,1010.94
2017-07-03T09:54:58.118Z,1010.94
2017-07-03T09:57:23.292Z,1010.93
2017-07-03T09:59:48.498Z,1010.89
2017-07-03T10:02:13.736Z,1010.68
2017-07-03T10:04:38.881Z,1010.65
2017-07-03T10:07:04.156Z,1010.68
2017-07-03T10:09:29.165Z,1010.83
2017-07-03T10:11:54.222Z,1010.57
2017-07-03T10:14:19.377Z,1010.58
2017-07-03T10:16:44.299Z,1010.7
2017-07-03T10:19:09.323Z,1010.69
2017-07-03T10:21:34.288Z,1010.7
2017-07-03T10:23:59.232Z,1010.6
2017-07-03T10:26:24.174Z,1010.61
2017-07-03T10:28:49.208Z,1010.45
2017-07-03T10:31:14.755Z,1010.35
2017-07-03T10:33:39.622Z,1010.42
2017-07-03T10:36:04.473Z,1010.42
2017-07-03T10:38:29.341Z,1010.44
2017-07-03T10:40:54.216Z,1010.34
2017-07-03T10:43:19.195Z,1010.24
2017-07-03T10:45:44.050Z,1010.16
2017-07-03T10:48:09.022Z,1010.12
2017-07-03T10:50:33.940Z,1010.2
2017-07-03T10:52:58.782Z,1010.15
2017-07-03T10:55:23.650Z,1010.11
2017-07-03T10:57:48.497Z,1010.19
2017-07-03T11:00:13.295Z,1010.07
2017-07-03T11:02:38.054Z,1010.23
2017-07-03T11:05:03.000Z,1010.07
2017-07-03T11:07:30.541Z,1010.13
2017-07-03T11:09:55.414Z,1010.13
2017-07-03T11:12:20.192Z,1010.11
2017-07-03T11:14:45.072Z,1010.07
2017-07-03T11:17:11.665Z,1010.04
2017-07-03T11:19:36.560Z,1010.03
2017-07-03T11:22:01.378Z,1010.05
2017-07-03T11:24:17.724Z,1009.91
2017-07-03T11:26:42.622Z,1009.99
2017-07-03T11:29:07.400Z,1009.9
2017-07-03T11:31:32.303Z,1009.79
2017-07-03T11:33:57.120Z,1009.89
2017-07-03T11:36:21.963Z,1009.85
2017-07-03T11:38:46.795Z,1009.76
2017-07-03T11:41:11.550Z,1009.78
2017-07-03T11:43:36.314Z,1009.82
2017-07-03T11:46:01.126Z,1009.76
2017-07-03T11:48:25.918Z,1009.71
2017-07-03T11:50:50.799Z,1009.69
2017-07-03T11:53:15.501Z,1009.75
2017-07-03T11:55:40.385Z,1009.68
2017-07-03T11:58:05.176Z,1009.65
2017-07-03T12:00:07.230Z,1009.62
2017-07-03T12:02:32.013Z,1009.57
2017-07-03T12:04:56.814Z,1009.57
2017-07-03T12:07:06.996Z,1009.57
2017-07-03T12:09:31.781Z,1009.6
2017-07-03T12:11:48.019Z,1009.6
2017-07-03T12:14:05.237Z,1009.57
2017-07-03T12:16:29.925Z,1009.53
2017-07-03T12:18:46.109Z,1009.48
2017-07-03T12:21:10.882Z,1009.41
2017-07-03T12:23:12.871Z,1009.46
2017-07-03T12:25:20.693Z,1009.42
2017-07-03T12:27:31.271Z,1009.37
2017-07-03T12:29:56.057Z,1009.4
2017-07-03T12:32:20.868Z,1009.43
2017-07-03T12:34:45.560Z,1009.44
2017-07-03T12:37:10.457Z,1009.39
2017-07-03T12:39:20.963Z,1009.37
2017-07-03T12:41:23.022Z,1009.31
2017-07-03T12:43:47.876Z,1009.21
2017-07-03T12:46:12.727Z,1009.23
2017-07-03T12:48:37.569Z,1009.25
2017-07-03T12:51:02.196Z,1009.15
2017-07-03T12:53:27.774Z,1009.18
2017-07-03T12:55:52.540Z,1009.1
2017-07-03T12:58:17.285Z,1009.04
2017-07-03T13:00:42.010Z,1009.08
2017-07-03T13:03:06.748Z,1008.92
2017-07-03T13:05:31.535Z,1008.94
2017-07-03T13:07:56.205Z,1008.89
2017-07-03T13:10:21.010Z,1008.85
2017-07-03T13:12:37.565Z,1008.84
2017-07-03T13:15:02.297Z,1008.76
2017-07-03T13:17:27.003Z,1008.76
2017-07-03T13:19:51.719Z,1008.73
2017-07-03T13:22:16.391Z,1008.66
2017-07-03T13:24:40.998Z,1008.65
2017-07-03T13:27:05.583Z,1008.65
2017-07-03T13:29:30.246Z,1008.65
2017-07-03T13:31:54.956Z,1008.6
2017-07-03T13:34:20.674Z,1008.63
2017-07-03T13:38:13.208Z,1008.58
2017-07-03T13:40:29.526Z,1008.68
2017-07-03T13:42:54.233Z,1008.52
2017-07-03T13:45:18.932Z,1008.54
2017-07-03T13:47:43.707Z,1008.51
2017-07-03T13:50:08.437Z,1008.47
2017-07-03T13:52:33.127Z,1008.48
2017-07-03T13:54:57.769Z,1008.51
2017-07-03T13:57:22.442Z,1008.53
2017-07-03T13:59:47.136Z,1008.51
2017-07-03T14:02:11.836Z,1008.45
2017-07-03T14:04:36.518Z,1008.47
2017-07-03T14:07:01.158Z,1008.51
2017-07-03T14:09:25.967Z,1008.42
2017-07-03T14:11:50.575Z,1008.42
2017-07-03T14:14:15.159Z,1008.45
2017-07-03T14:16:39.807Z,1008.44
2017-07-03T14:19:04.433Z,1008.32
2017-07-03T14:21:28.954Z,1008.4
2017-07-03T14:25:29.860Z,1008.4
2017-07-03T14:27:54.565Z,1008.31
2017-07-03T14:30:19.263Z,1008.23
2017-07-03T14:32:43.845Z,1008.22
2017-07-03T14:35:08.641Z,1008.23
2017-07-03T14:37:33.289Z,1008.19
2017-07-03T14:39:57.934Z,1008.17
2017-07-03T14:42:23.028Z,1008.21
2017-07-03T14:44:47.744Z,1008.22
2017-07-03T14:47:12.467Z,1008.18
2017-07-03T14:49:37.223Z,1008.21
2017-07-03T14:52:01.929Z,1008.14
2017-07-03T14:54:26.648Z,1008.24
2017-07-03T14:56:36.748Z,1008.19
2017-07-03T14:59:01.481Z,1008.13
2017-07-03T15:01:26.214Z,1008.19
2017-07-03T15:03:50.923Z,1008.1
2017-07-03T15:06:07.196Z,1008.03
2017-07-03T15:08:31.880Z,1008.06
2017-07-03T15:10:42.441Z,1008.07
2017-07-03T15:13:07.200Z,1008.12
2017-07-03T15:15:31.959Z,1008.08
2017-07-03T15:17:56.668Z,1008.06
2017-07-03T15:20:21.333Z,1008.03
2017-07-03T15:22:45.983Z,1008.04
2017-07-03T15:25:02.179Z,1007.89
2017-07-03T15:27:26.849Z,1007.98
2017-07-03T15:29:51.397Z,1007.89
2017-07-03T15:32:16.075Z,1007.87
2017-07-03T15:34:40.649Z,1007.89
2017-07-03T15:37:05.262Z,1007.93
2017-07-03T15:39:21.406Z,1007.91
2017-07-03T15:41:46.042Z,1007.86
2017-07-03T15:44:10.706Z,1007.83
2017-07-03T15:46:35.339Z,1007.76
2017-07-03T15:49:00.183Z,1007.77
2017-07-03T15:51:25.294Z,1007.73
2017-07-03T15:53:49.972Z,1007.71
2017-07-03T15:56:14.756Z,1007.7
2017-07-03T15:58:40.119Z,1007.71
2017-07-03T16:01:07.759Z,1007.74
2017-07-03T16:03:33.258Z,1007.67
2017-07-03T16:05:58.383Z,1007.66
2017-07-03T16:08:23.535Z,1007.69
2017-07-03T16:10:48.462Z,1007.63
2017-07-03T16:13:13.144Z,1007.6
2017-07-03T16:15:38.199Z,1007.6
2017-07-03T16:18:05.430Z,1007.54
2017-07-03T16:20:30.286Z,1007.55
2017-07-03T16:22:55.086Z,1007.53
2017-07-03T16:25:25.671Z,1007.46
2017-07-03T16:27:37.233Z,1007.48
2017-07-03T16:30:01.508Z,1007.48
2017-07-03T16:32:28.442Z,1007.49
2017-07-03T16:37:06.429Z,1007.43
2017-07-03T16:39:34.243Z,1007.44
2017-07-03T16:45:22.272Z,1007.4
2017-07-03T16:47:56.333Z,1007.41
2017-07-03T16:50:27.484Z,1007.42
2017-07-03T16:52:55.631Z,1007.42
2017-07-03T16:57:02.001Z,1007.37
2017-07-03T16:59:28.515Z,1007.31
2017-07-03T17:01:45.392Z,1007.22
2017-07-03T17:04:10.240Z,1007.3
2017-07-03T17:06:35.326Z,1007.29
2017-07-03T17:08:59.816Z,1007.33
2017-07-03T17:11:25.493Z,1007.33
2017-07-03T17:13:50.055Z,1007.36
2017-07-03T17:16:14.589Z,1007.35
2017-07-03T17:18:39.266Z,1007.32
2017-07-03T17:21:03.991Z,1007.38
2017-07-03T17:23:28.649Z,1007.36
2017-07-03T17:25:53.405Z,1007.36
2017-07-03T17:28:18.062Z,1007.39
2017-07-03T17:30:42.695Z,1007.35
2017-07-03T17:33:07.327Z,1007.34
2017-07-03T17:35:31.947Z,1007.44
2017-07-03T17:37:56.728Z,1007.41
2017-07-03T17:40:25.202Z,1007.44
2017-07-03T17:42:50.026Z,1007.43
2017-07-03T17:45:14.617Z,1007.45
2017-07-03T17:47:39.231Z,1007.45
2017-07-03T17:50:03.857Z,1007.41
2017-07-03T17:52:14.733Z,1007.4
2017-07-03T17:54:39.424Z,1007.43
2017-07-03T17:57:04.075Z,1007.45
2017-07-03T17:59:28.627Z,1007.41
2017-07-03T18:01:53.287Z,1007.39
2017-07-03T18:04:18.038Z,1007.43
2017-07-03T18:06:42.529Z,1007.4
2017-07-03T18:09:07.292Z,1007.38
2017-07-03T18:11:31.797Z,1007.38
2017-07-03T18:13:56.356Z,1007.4
2017-07-03T18:16:20.894Z,1007.34
2017-07-03T18:18:45.392Z,1007.38
2017-07-03T18:21:09.841Z,1007.42
2017-07-03T18:23:34.361Z,1007.41
2017-07-03T18:25:58.955Z,1007.39
2017-07-03T18:28:23.449Z,1007.42
2017-07-03T18:30:47.895Z,1007.41
2017-07-03T18:33:12.519Z,1007.43
2017-07-03T18:35:37.208Z,1007.43
2017-07-03T18:38:01.694Z,1007.44
2017-07-03T18:40:26.454Z,1007.43
2017-07-03T18:42:50.962Z,1007.43
2017-07-03T18:45:06.950Z,1007.39
2017-07-03T18:47:23.013Z,1007.4
2017-07-03T18:49:47.521Z,1007.38
2017-07-03T18:52:12.012Z,1007.41
2017-07-03T18:54:36.529Z,1007.35
2017-07-03T18:57:01.060Z,1007.36
2017-07-03T18:59:03.070Z,1007.4
2017-07-03T19:01:27.610Z,1007.38
2017-07-03T19:03:52.107Z,1007.41
2017-07-03T19:06:17.101Z,1007.36
2017-07-03T19:08:32.690Z,1007.39
2017-07-03T19:10:57.209Z,1007.4
2017-07-03T19:13:08.074Z,1007.34
2017-07-03T19:15:32.556Z,1007.35
2017-07-03T19:19:33.097Z,1007.36
2017-07-03T19:21:57.613Z,1007.34
2017-07-03T19:24:22.316Z,1007.39
2017-07-03T19:26:46.771Z,1007.34
2017-07-03T19:29:11.117Z,1007.39
2017-07-03T19:31:35.507Z,1007.35
2017-07-03T19:33:59.907Z,1007.38
2017-07-03T19:36:24.334Z,1007.39
2017-07-03T19:38:48.763Z,1007.41
2017-07-03T19:40:50.243Z,1007.38
2017-07-03T19:43:14.689Z,1007.46
2017-07-03T19:45:39.141Z,1007.44
2017-07-03T19:48:03.745Z,1007.47
2017-07-03T19:50:28.148Z,1007.44
2017-07-03T19:52:52.598Z,1007.5
2017-07-03T19:55:17.006Z,1007.51
2017-07-03T19:57:32.988Z,1007.37
2017-07-03T19:59:58.119Z,1007.47
2017-07-03T20:02:22.383Z,1007.53
2017-07-03T20:04:46.694Z,1007.55
2017-07-03T20:07:11.228Z,1007.52
2017-07-03T20:09:35.851Z,1007.54
2017-07-03T20:12:00.196Z,1007.58
2017-07-03T20:14:24.463Z,1007.56
2017-07-03T20:16:50.138Z,1007.57
2017-07-03T20:19:14.180Z,1007.59
2017-07-03T20:21:38.533Z,1007.63
2017-07-03T20:24:02.840Z,1007.62
2017-07-03T20:26:27.153Z,1007.62
2017-07-03T20:28:28.627Z,1007.65
2017-07-03T20:30:52.968Z,1007.63
2017-07-03T20:33:02.964Z,1007.63
2017-07-03T20:35:27.287Z,1007.63
2017-07-03T20:37:37.298Z,1007.63
2017-07-03T20:40:01.651Z,1007.61
2017-07-03T20:42:25.967Z,1007.6
2017-07-03T20:44:41.846Z,1007.64
2017-07-03T20:47:06.151Z,1007.65
2017-07-03T20:49:30.468Z,1007.63
2017-07-03T20:51:54.819Z,1007.66
2017-07-03T20:54:19.117Z,1007.67
2017-07-03T20:56:43.400Z,1007.68
2017-07-03T20:58:53.399Z,1007.72
2017-07-03T21:01:17.678Z,1007.78
2017-07-03T21:03:41.964Z,1007.74
2017-07-03T21:06:06.335Z,1007.75
2017-07-03T21:08:30.609Z,1007.77
2017-07-03T21:10:46.447Z,1007.76
2017-07-03T21:13:10.694Z,1007.82
2017-07-03T21:15:34.896Z,1007.83
2017-07-03T21:17:59.121Z,1007.88
2017-07-03T21:20:23.287Z,1007.87
2017-07-03T21:22:47.517Z,1007.88
2017-07-03T21:25:11.734Z,1007.87
2017-07-03T21:27:35.940Z,1007.89
2017-07-03T21:30:00.173Z,1007.88
2017-07-03T21:32:24.399Z,1007.89
2017-07-03T21:34:48.615Z,1007.89
2017-07-03T21:37:12.818Z,1007.91
2017-07-03T21:39:37.050Z,1007.93
2017-07-03T21:42:01.254Z,1007.96
2017-07-03T21:44:25.506Z,1008
2017-07-03T21:46:49.554Z,1007.99
2017-07-03T21:49:13.815Z,1008.03
2017-07-03T21:51:38.102Z,1008.01
2017-07-03T21:54:02.261Z,1007.98
2017-07-03T21:56:26.457Z,1008.06
2017-07-03T21:58:50.666Z,1008.05
2017-07-03T22:01:06.433Z,1008.03
2017-07-03T22:03:22.168Z,1008.1
2017-07-03T22:05:37.919Z,1008.1
2017-07-03T22:08:02.044Z,1008.1
2017-07-03T22:10:26.205Z,1008.13
2017-07-03T22:12:50.334Z,1008.14
2017-07-03T22:15:21.252Z,1008.13
2017-07-03T22:17:45.371Z,1008.13
2017-07-03T22:20:09.509Z,1008.12
2017-07-03T22:22:33.666Z,1008.15
2017-07-03T22:24:57.828Z,1008.15
2017-07-03T22:27:05.126Z,1008.15
2017-07-03T22:29:29.280Z,1008.14
2017-07-03T22:31:53.426Z,1008.1
2017-07-03T22:34:17.568Z,1008.09
2017-07-03T22:36:41.741Z,1008.1
2017-07-03T22:39:05.902Z,1008.13
2017-07-03T22:41:30.000Z,1008.13
2017-07-03T22:43:54.122Z,1008.12
2017-07-03T22:46:09.820Z,1008.11
2017-07-03T22:48:11.222Z,1008.11
2017-07-03T22:50:26.945Z,1008.09
2017-07-03T22:52:51.042Z,1008.09
2017-07-03T22:55:15.171Z,1008.1
2017-07-03T22:57:30.862Z,1008.1
2017-07-03T22:59:55.001Z,1008.08
2017-07-03T23:02:19.122Z,1008.1
2017-07-03T23:04:43.283Z,1008.09
2017-07-03T23:07:07.404Z,1008.09
2017-07-03T23:09:17.841Z,1008.04
2017-07-03T23:11:41.965Z,1008.1
2017-07-03T23:13:35.401Z,1008.07
2017-07-03T23:15:59.553Z,1008.09
2017-07-03T23:18:15.228Z,1008.07
2017-07-03T23:20:39.344Z,1008.08
2017-07-03T23:23:03.410Z,1008.07
2017-07-03T23:25:19.078Z,1007.92
2017-07-03T23:27:43.190Z,1008.02
2017-07-03T23:30:07.286Z,1007.99
2017-07-03T23:32:31.377Z,1008.02
2017-07-03T23:34:55.466Z,1008.03
2017-07-03T23:37:19.572Z,1008.02
2017-07-03T23:39:43.624Z,1008.02
2017-07-03T23:42:07.729Z,1007.96
2017-07-03T23:44:23.516Z,1007.96
2017-07-03T23:46:47.601Z,1007.96
2017-07-03T23:49:11.732Z,1007.95
2017-07-03T23:51:35.865Z,1007.95
2017-07-03T23:53:51.537Z,1007.98
2017-07-03T23:56:15.620Z,1007.94
2017-07-03T23:58:39.711Z,1007.98
